sensor_id;sensor_type;location;lat;lon;timestamp;P1;durP1;ratioP1;P2;durP2;ratioP2
81629;SDS011;71039;49.500;10.418;2023-09-12T00:00:42;4.03;;;2.13;;
81629;SDS011;71039;49.500;10.418;2023-09-12T00:03:08;2.33;;;2.10;;
81629;SDS011;71039;49.500;10.418;2023-09-12T00:05:33;2.33;;;2.13;;
81629;SDS011;71039;49.500;10.418;2023-09-12T00:07:59;2.55;;;2.35;;
81629;SDS011;71039;49.500;10.418;2023-09-12T00:10:24;2.90;;;2.10;;
81629;SDS011;71039;49.500;10.418;2023-09-12T00:12:50;2.22;;;2.03;;
81629;SDS011;71039;49.500;10.418;2023-09-12T00:15:15;3.65;;;2.05;;
81629;SDS011;71039;49.500;10.418;2023-09-12T00:17:41;2.28;;;1.90;;
81629;SDS011;71039;49.500;10.418;2023-09-12T00:20:07;2.53;;;2.22;;
81629;SDS011;71039;49.500;10.418;2023-09-12T00:22:33;1.85;;;1.75;;
81629;SDS011;71039;49.500;10.418;2023-09-12T00:24:58;6.65;;;2.20;;
81629;SDS011;71039;49.500;10.418;2023-09-12T00:27:24;3.00;;;2.38;;
81629;SDS011;71039;49.500;10.418;2023-09-12T00:29:49;2.47;;;2.25;;
81629;SDS011;71039;49.500;10.418;2023-09-12T00:32:15;2.10;;;1.98;;
81629;SDS011;71039;49.500;10.418;2023-09-12T00:34:40;3.38;;;2.42;;
81629;SDS011;71039;49.500;10.418;2023-09-12T00:37:06;2.50;;;2.30;;
81629;SDS011;71039;49.500;10.418;2023-09-12T00:39:31;3.42;;;1.98;;
81629;SDS011;71039;49.500;10.418;2023-09-12T00:41:57;2.05;;;1.85;;
81629;SDS011;71039;49.500;10.418;2023-09-12T00:44:22;1.73;;;1.63;;
81629;SDS011;71039;49.500;10.418;2023-09-12T00:46:48;2.20;;;2.00;;
81629;SDS011;71039;49.500;10.418;2023-09-12T00:49:15;2.13;;;1.92;;
81629;SDS011;71039;49.500;10.418;2023-09-12T00:51:42;3.38;;;2.10;;
81629;SDS011;71039;49.500;10.418;2023-09-12T00:54:09;2.35;;;2.00;;
81629;SDS011;71039;49.500;10.418;2023-09-12T00:56:36;3.35;;;2.10;;
81629;SDS011;71039;49.500;10.418;2023-09-12T00:59:02;2.88;;;2.10;;
81629;SDS011;71039;49.500;10.418;2023-09-12T01:01:29;1.58;;;1.48;;
81629;SDS011;71039;49.500;10.418;2023-09-12T01:03:57;2.90;;;2.28;;
81629;SDS011;71039;49.500;10.418;2023-09-12T01:06:23;2.72;;;2.53;;
81629;SDS011;71039;49.500;10.418;2023-09-12T01:08:50;3.60;;;2.38;;
81629;SDS011;71039;49.500;10.418;2023-09-12T01:11:16;2.30;;;2.10;;
81629;SDS011;71039;49.500;10.418;2023-09-12T01:13:42;2.33;;;2.13;;
81629;SDS011;71039;49.500;10.418;2023-09-12T01:16:08;2.35;;;2.15;;
81629;SDS011;71039;49.500;10.418;2023-09-12T01:18:33;3.22;;;2.10;;
81629;SDS011;71039;49.500;10.418;2023-09-12T01:21:19;2.38;;;2.17;;
81629;SDS011;71039;49.500;10.418;2023-09-12T01:27:25;2.53;;;2.30;;
81629;SDS011;71039;49.500;10.418;2023-09-12T01:29:56;2.42;;;2.22;;
81629;SDS011;71039;49.500;10.418;2023-09-12T01:32:23;3.08;;;2.05;;
81629;SDS011;71039;49.500;10.418;2023-09-12T01:34:48;2.40;;;1.90;;
81629;SDS011;71039;49.500;10.418;2023-09-12T01:37:14;4.60;;;2.17;;
81629;SDS011;71039;49.500;10.418;2023-09-12T01:39:40;2.60;;;2.20;;
81629;SDS011;71039;49.500;10.418;2023-09-12T01:42:05;2.38;;;2.17;;
81629;SDS011;71039;49.500;10.418;2023-09-12T01:44:34;2.38;;;2.17;;
81629;SDS011;71039;49.500;10.418;2023-09-12T01:47:03;2.58;;;2.38;;
81629;SDS011;71039;49.500;10.418;2023-09-12T01:49:29;2.67;;;2.45;;
81629;SDS011;71039;49.500;10.418;2023-09-12T01:51:58;2.25;;;2.08;;
81629;SDS011;71039;49.500;10.418;2023-09-12T01:54:25;3.33;;;3.03;;
81629;SDS011;71039;49.500;10.418;2023-09-12T01:56:52;3.65;;;2.13;;
81629;SDS011;71039;49.500;10.418;2023-09-12T01:59:19;5.38;;;2.20;;
81629;SDS011;71039;49.500;10.418;2023-09-12T02:01:44;2.72;;;2.42;;
81629;SDS011;71039;49.500;10.418;2023-09-12T02:04:10;4.72;;;2.50;;
81629;SDS011;71039;49.500;10.418;2023-09-12T02:06:35;2.30;;;2.10;;
81629;SDS011;71039;49.500;10.418;2023-09-12T02:09:01;2.55;;;2.33;;
81629;SDS011;71039;49.500;10.418;2023-09-12T02:11:27;6.53;;;2.65;;
81629;SDS011;71039;49.500;10.418;2023-09-12T02:13:52;2.65;;;2.40;;
81629;SDS011;71039;49.500;10.418;2023-09-12T02:16:18;3.00;;;2.53;;
81629;SDS011;71039;49.500;10.418;2023-09-12T02:18:43;2.83;;;2.63;;
81629;SDS011;71039;49.500;10.418;2023-09-12T02:21:09;3.40;;;2.30;;
81629;SDS011;71039;49.500;10.418;2023-09-12T02:23:34;2.58;;;2.25;;
81629;SDS011;71039;49.500;10.418;2023-09-12T02:26:00;2.40;;;2.20;;
81629;SDS011;71039;49.500;10.418;2023-09-12T02:28:26;2.03;;;1.85;;
81629;SDS011;71039;49.500;10.418;2023-09-12T02:30:52;2.25;;;2.08;;
81629;SDS011;71039;49.500;10.418;2023-09-12T02:33:17;2.45;;;2.08;;
81629;SDS011;71039;49.500;10.418;2023-09-12T02:35:43;2.45;;;2.25;;
81629;SDS011;71039;49.500;10.418;2023-09-12T02:38:09;1.95;;;1.85;;
81629;SDS011;71039;49.500;10.418;2023-09-12T02:40:34;2.08;;;1.98;;
81629;SDS011;71039;49.500;10.418;2023-09-12T02:43:00;2.40;;;2.20;;
81629;SDS011;71039;49.500;10.418;2023-09-12T02:45:26;2.50;;;2.13;;
81629;SDS011;71039;49.500;10.418;2023-09-12T02:47:51;2.45;;;2.25;;
81629;SDS011;71039;49.500;10.418;2023-09-12T02:50:17;2.85;;;2.53;;
81629;SDS011;71039;49.500;10.418;2023-09-12T02:52:42;2.42;;;2.00;;
81629;SDS011;71039;49.500;10.418;2023-09-12T02:55:08;3.03;;;2.17;;
81629;SDS011;71039;49.500;10.418;2023-09-12T02:57:34;2.67;;;2.47;;
81629;SDS011;71039;49.500;10.418;2023-09-12T02:59:59;3.63;;;2.60;;
81629;SDS011;71039;49.500;10.418;2023-09-12T03:02:25;2.03;;;1.92;;
81629;SDS011;71039;49.500;10.418;2023-09-12T03:04:50;3.03;;;2.53;;
81629;SDS011;71039;49.500;10.418;2023-09-12T03:07:16;2.40;;;2.20;;
81629;SDS011;71039;49.500;10.418;2023-09-12T03:09:41;2.45;;;2.25;;
81629;SDS011;71039;49.500;10.418;2023-09-12T03:12:07;2.80;;;2.38;;
81629;SDS011;71039;49.500;10.418;2023-09-12T03:14:33;3.25;;;2.72;;
81629;SDS011;71039;49.500;10.418;2023-09-12T03:16:59;2.25;;;2.05;;
81629;SDS011;71039;49.500;10.418;2023-09-12T03:19:24;2.58;;;2.38;;
81629;SDS011;71039;49.500;10.418;2023-09-12T03:21:50;2.35;;;2.15;;
81629;SDS011;71039;49.500;10.418;2023-09-12T03:24:15;2.40;;;2.20;;
81629;SDS011;71039;49.500;10.418;2023-09-12T03:26:41;2.65;;;2.22;;
81629;SDS011;71039;49.500;10.418;2023-09-12T03:29:06;1.77;;;1.67;;
81629;SDS011;71039;49.500;10.418;2023-09-12T03:31:32;2.92;;;2.72;;
81629;SDS011;71039;49.500;10.418;2023-09-12T03:33:57;2.30;;;2.13;;
81629;SDS011;71039;49.500;10.418;2023-09-12T03:36:23;3.90;;;2.75;;
81629;SDS011;71039;49.500;10.418;2023-09-12T03:38:48;2.28;;;2.08;;
81629;SDS011;71039;49.500;10.418;2023-09-12T03:41:14;6.30;;;2.58;;
81629;SDS011;71039;49.500;10.418;2023-09-12T03:43:40;4.40;;;2.50;;
81629;SDS011;71039;49.500;10.418;2023-09-12T03:46:05;2.88;;;2.67;;
81629;SDS011;71039;49.500;10.418;2023-09-12T03:48:31;2.40;;;2.20;;
81629;SDS011;71039;49.500;10.418;2023-09-12T03:50:57;2.92;;;2.35;;
81629;SDS011;71039;49.500;10.418;2023-09-12T03:53:23;3.00;;;2.80;;
81629;SDS011;71039;49.500;10.418;2023-09-12T03:55:48;3.80;;;2.47;;
81629;SDS011;71039;49.500;10.418;2023-09-12T03:58:14;3.10;;;2.80;;
81629;SDS011;71039;49.500;10.418;2023-09-12T04:00:40;2.88;;;2.55;;
81629;SDS011;71039;49.500;10.418;2023-09-12T04:03:05;4.43;;;2.42;;
81629;SDS011;71039;49.500;10.418;2023-09-12T04:05:31;2.83;;;2.42;;
81629;SDS011;71039;49.500;10.418;2023-09-12T04:07:56;2.30;;;2.10;;
81629;SDS011;71039;49.500;10.418;2023-09-12T04:10:22;2.40;;;2.20;;
81629;SDS011;71039;49.500;10.418;2023-09-12T04:12:48;3.42;;;2.40;;
81629;SDS011;71039;49.500;10.418;2023-09-12T04:15:13;5.43;;;2.22;;
81629;SDS011;71039;49.500;10.418;2023-09-12T04:17:39;3.00;;;2.53;;
81629;SDS011;71039;49.500;10.418;2023-09-12T04:20:05;2.78;;;2.58;;
81629;SDS011;71039;49.500;10.418;2023-09-12T04:22:32;2.60;;;2.40;;
81629;SDS011;71039;49.500;10.418;2023-09-12T04:24:58;2.38;;;2.20;;
81629;SDS011;71039;49.500;10.418;2023-09-12T04:27:24;2.83;;;2.40;;
81629;SDS011;71039;49.500;10.418;2023-09-12T04:29:50;2.65;;;2.45;;
81629;SDS011;71039;49.500;10.418;2023-09-12T04:32:16;3.22;;;2.22;;
81629;SDS011;71039;49.500;10.418;2023-09-12T04:34:44;2.60;;;2.40;;
81629;SDS011;71039;49.500;10.418;2023-09-12T04:37:10;3.50;;;2.92;;
81629;SDS011;71039;49.500;10.418;2023-09-12T04:39:36;3.67;;;2.47;;
81629;SDS011;71039;49.500;10.418;2023-09-12T04:42:01;2.50;;;2.30;;
81629;SDS011;71039;49.500;10.418;2023-09-12T04:44:27;3.97;;;2.50;;
81629;SDS011;71039;49.500;10.418;2023-09-12T04:46:52;3.20;;;2.90;;
81629;SDS011;71039;49.500;10.418;2023-09-12T04:49:18;2.97;;;2.78;;
81629;SDS011;71039;49.500;10.418;2023-09-12T04:51:44;2.63;;;2.42;;
81629;SDS011;71039;49.500;10.418;2023-09-12T04:54:09;2.78;;;2.58;;
81629;SDS011;71039;49.500;10.418;2023-09-12T04:56:35;3.38;;;2.75;;
81629;SDS011;71039;49.500;10.418;2023-09-12T04:59:00;2.85;;;2.63;;
81629;SDS011;71039;49.500;10.418;2023-09-12T05:01:26;2.15;;;1.77;;
81629;SDS011;71039;49.500;10.418;2023-09-12T05:03:51;4.07;;;3.15;;
81629;SDS011;71039;49.500;10.418;2023-09-12T05:06:17;2.47;;;2.28;;
81629;SDS011;71039;49.500;10.418;2023-09-12T05:08:43;2.63;;;2.42;;
81629;SDS011;71039;49.500;10.418;2023-09-12T05:11:08;2.70;;;2.50;;
81629;SDS011;71039;49.500;10.418;2023-09-12T05:13:34;3.28;;;2.97;;
81629;SDS011;71039;49.500;10.418;2023-09-12T05:16:00;2.80;;;2.30;;
81629;SDS011;71039;49.500;10.418;2023-09-12T05:18:26;2.92;;;2.50;;
81629;SDS011;71039;49.500;10.418;2023-09-12T05:20:51;3.38;;;3.08;;
81629;SDS011;71039;49.500;10.418;2023-09-12T05:23:17;3.25;;;2.00;;
81629;SDS011;71039;49.500;10.418;2023-09-12T05:25:42;3.45;;;3.15;;
81629;SDS011;71039;49.500;10.418;2023-09-12T05:28:08;2.80;;;2.60;;
81629;SDS011;71039;49.500;10.418;2023-09-12T05:30:34;2.85;;;2.50;;
81629;SDS011;71039;49.500;10.418;2023-09-12T05:32:59;3.65;;;3.35;;
81629;SDS011;71039;49.500;10.418;2023-09-12T05:35:25;3.90;;;2.53;;
81629;SDS011;71039;49.500;10.418;2023-09-12T05:37:52;2.88;;;2.67;;
81629;SDS011;71039;49.500;10.418;2023-09-12T05:40:18;4.13;;;2.92;;
81629;SDS011;71039;49.500;10.418;2023-09-12T05:42:44;3.05;;;2.85;;
81629;SDS011;71039;49.500;10.418;2023-09-12T05:45:09;5.68;;;3.03;;
81629;SDS011;71039;49.500;10.418;2023-09-12T05:47:35;3.25;;;2.95;;
81629;SDS011;71039;49.500;10.418;2023-09-12T05:50:01;5.90;;;2.95;;
81629;SDS011;71039;49.500;10.418;2023-09-12T05:52:27;2.58;;;2.38;;
81629;SDS011;71039;49.500;10.418;2023-09-12T05:54:52;4.13;;;2.75;;
81629;SDS011;71039;49.500;10.418;2023-09-12T05:57:18;3.05;;;2.75;;
81629;SDS011;71039;49.500;10.418;2023-09-12T05:59:43;3.80;;;2.78;;
81629;SDS011;71039;49.500;10.418;2023-09-12T06:02:09;3.53;;;3.22;;
81629;SDS011;71039;49.500;10.418;2023-09-12T06:04:35;4.45;;;3.90;;
81629;SDS011;71039;49.500;10.418;2023-09-12T06:07:01;3.20;;;2.75;;
81629;SDS011;71039;49.500;10.418;2023-09-12T06:09:28;5.65;;;4.32;;
81629;SDS011;71039;49.500;10.418;2023-09-12T06:11:54;4.43;;;4.03;;
81629;SDS011;71039;49.500;10.418;2023-09-12T06:14:20;4.10;;;3.67;;
81629;SDS011;71039;49.500;10.418;2023-09-12T06:16:45;5.38;;;3.53;;
81629;SDS011;71039;49.500;10.418;2023-09-12T06:19:11;6.05;;;4.30;;
81629;SDS011;71039;49.500;10.418;2023-09-12T06:21:37;4.75;;;3.72;;
81629;SDS011;71039;49.500;10.418;2023-09-12T06:24:10;4.45;;;3.53;;
81629;SDS011;71039;49.500;10.418;2023-09-12T06:26:37;4.22;;;3.55;;
81629;SDS011;71039;49.500;10.418;2023-09-12T06:29:03;7.55;;;3.10;;
81629;SDS011;71039;49.500;10.418;2023-09-12T06:31:29;3.92;;;3.00;;
81629;SDS011;71039;49.500;10.418;2023-09-12T06:33:54;2.55;;;2.13;;
81629;SDS011;71039;49.500;10.418;2023-09-12T06:36:20;3.50;;;2.97;;
81629;SDS011;71039;49.500;10.418;2023-09-12T06:38:46;3.85;;;2.53;;
81629;SDS011;71039;49.500;10.418;2023-09-12T06:41:12;2.95;;;2.65;;
81629;SDS011;71039;49.500;10.418;2023-09-12T06:43:38;2.95;;;2.17;;
81629;SDS011;71039;49.500;10.418;2023-09-12T06:46:03;3.53;;;2.67;;
81629;SDS011;71039;49.500;10.418;2023-09-12T06:48:29;4.70;;;2.60;;
81629;SDS011;71039;49.500;10.418;2023-09-12T06:50:54;2.67;;;2.47;;
81629;SDS011;71039;49.500;10.418;2023-09-12T06:53:20;2.67;;;2.05;;
81629;SDS011;71039;49.500;10.418;2023-09-12T06:55:45;3.25;;;2.45;;
81629;SDS011;71039;49.500;10.418;2023-09-12T06:58:11;4.28;;;2.72;;
81629;SDS011;71039;49.500;10.418;2023-09-12T07:00:37;3.58;;;2.47;;
81629;SDS011;71039;49.500;10.418;2023-09-12T07:03:02;5.10;;;2.92;;
81629;SDS011;71039;49.500;10.418;2023-09-12T07:05:28;3.67;;;3.08;;
81629;SDS011;71039;49.500;10.418;2023-09-12T07:07:54;3.55;;;2.78;;
81629;SDS011;71039;49.500;10.418;2023-09-12T07:10:19;2.90;;;2.70;;
81629;SDS011;71039;49.500;10.418;2023-09-12T07:12:45;4.55;;;3.25;;
81629;SDS011;71039;49.500;10.418;2023-09-12T07:15:11;5.68;;;3.60;;
81629;SDS011;71039;49.500;10.418;2023-09-12T07:17:36;5.57;;;4.00;;
81629;SDS011;71039;49.500;10.418;2023-09-12T07:20:02;5.38;;;4.05;;
81629;SDS011;71039;49.500;10.418;2023-09-12T07:22:27;5.22;;;3.42;;
81629;SDS011;71039;49.500;10.418;2023-09-12T07:24:53;5.53;;;3.85;;
81629;SDS011;71039;49.500;10.418;2023-09-12T07:27:19;4.05;;;3.65;;
81629;SDS011;71039;49.500;10.418;2023-09-12T07:29:45;4.35;;;3.55;;
81629;SDS011;71039;49.500;10.418;2023-09-12T07:32:10;6.57;;;3.75;;
81629;SDS011;71039;49.500;10.418;2023-09-12T07:34:37;4.90;;;3.30;;
81629;SDS011;71039;49.500;10.418;2023-09-12T07:37:02;4.22;;;3.45;;
81629;SDS011;71039;49.500;10.418;2023-09-12T07:39:28;4.22;;;2.88;;
81629;SDS011;71039;49.500;10.418;2023-09-12T07:41:53;3.72;;;3.28;;
81629;SDS011;71039;49.500;10.418;2023-09-12T07:44:19;4.93;;;3.47;;
81629;SDS011;71039;49.500;10.418;2023-09-12T07:46:44;3.60;;;3.00;;
81629;SDS011;71039;49.500;10.418;2023-09-12T07:49:10;3.63;;;3.20;;
81629;SDS011;71039;49.500;10.418;2023-09-12T07:51:35;5.05;;;3.60;;
81629;SDS011;71039;49.500;10.418;2023-09-12T07:54:01;5.03;;;3.35;;
81629;SDS011;71039;49.500;10.418;2023-09-12T07:56:27;3.80;;;3.42;;
81629;SDS011;71039;49.500;10.418;2023-09-12T07:58:52;4.72;;;3.08;;
81629;SDS011;71039;49.500;10.418;2023-09-12T08:01:18;4.68;;;2.85;;
81629;SDS011;71039;49.500;10.418;2023-09-12T08:03:43;4.63;;;3.58;;
81629;SDS011;71039;49.500;10.418;2023-09-12T08:06:09;6.05;;;4.20;;
81629;SDS011;71039;49.500;10.418;2023-09-12T08:08:35;5.20;;;3.88;;
81629;SDS011;71039;49.500;10.418;2023-09-12T08:11:00;4.82;;;3.80;;
81629;SDS011;71039;49.500;10.418;2023-09-12T08:13:27;4.07;;;3.53;;
81629;SDS011;71039;49.500;10.418;2023-09-12T08:15:53;3.90;;;3.50;;
81629;SDS011;71039;49.500;10.418;2023-09-12T08:18:19;4.90;;;3.75;;
81629;SDS011;71039;49.500;10.418;2023-09-12T08:20:45;5.43;;;3.53;;
81629;SDS011;71039;49.500;10.418;2023-09-12T08:23:10;3.63;;;3.22;;
81629;SDS011;71039;49.500;10.418;2023-09-12T08:25:36;6.22;;;3.20;;
81629;SDS011;71039;49.500;10.418;2023-09-12T08:28:01;4.93;;;3.40;;
81629;SDS011;71039;49.500;10.418;2023-09-12T08:30:27;4.00;;;3.25;;
81629;SDS011;71039;49.500;10.418;2023-09-12T08:32:53;4.45;;;3.25;;
81629;SDS011;71039;49.500;10.418;2023-09-12T08:35:18;4.00;;;3.05;;
81629;SDS011;71039;49.500;10.418;2023-09-12T08:37:44;4.03;;;3.40;;
81629;SDS011;71039;49.500;10.418;2023-09-12T08:40:10;4.07;;;3.38;;
81629;SDS011;71039;49.500;10.418;2023-09-12T08:42:40;3.97;;;3.13;;
81629;SDS011;71039;49.500;10.418;2023-09-12T08:45:13;4.22;;;3.00;;
81629;SDS011;71039;49.500;10.418;2023-09-12T08:47:41;4.18;;;3.10;;
81629;SDS011;71039;49.500;10.418;2023-09-12T08:50:10;3.25;;;2.95;;
81629;SDS011;71039;49.500;10.418;2023-09-12T08:52:36;3.25;;;2.95;;
81629;SDS011;71039;49.500;10.418;2023-09-12T08:55:02;3.65;;;2.80;;
81629;SDS011;71039;49.500;10.418;2023-09-12T08:57:27;4.57;;;3.38;;
81629;SDS011;71039;49.500;10.418;2023-09-12T09:02:20;3.10;;;2.47;;
81629;SDS011;71039;49.500;10.418;2023-09-12T09:04:46;7.78;;;3.53;;
81629;SDS011;71039;49.500;10.418;2023-09-12T09:07:12;3.80;;;3.38;;
81629;SDS011;71039;49.500;10.418;2023-09-12T09:09:39;4.05;;;3.40;;
81629;SDS011;71039;49.500;10.418;2023-09-12T09:12:08;7.00;;;3.40;;
81629;SDS011;71039;49.500;10.418;2023-09-12T09:14:34;4.13;;;3.03;;
81629;SDS011;71039;49.500;10.418;2023-09-12T09:16:59;4.45;;;3.33;;
81629;SDS011;71039;49.500;10.418;2023-09-12T09:19:40;3.97;;;3.40;;
81629;SDS011;71039;49.500;10.418;2023-09-12T09:22:07;7.32;;;3.72;;
81629;SDS011;71039;49.500;10.418;2023-09-12T09:24:33;7.10;;;2.88;;
81629;SDS011;71039;49.500;10.418;2023-09-12T09:26:58;3.03;;;2.78;;
81629;SDS011;71039;49.500;10.418;2023-09-12T09:29:24;3.20;;;2.53;;
81629;SDS011;71039;49.500;10.418;2023-09-12T09:31:50;3.00;;;2.70;;
81629;SDS011;71039;49.500;10.418;2023-09-12T09:34:16;3.60;;;3.17;;
81629;SDS011;71039;49.500;10.418;2023-09-12T09:36:43;4.50;;;2.90;;
81629;SDS011;71039;49.500;10.418;2023-09-12T09:39:12;3.17;;;2.75;;
81629;SDS011;71039;49.500;10.418;2023-09-12T09:41:38;4.40;;;3.20;;
81629;SDS011;71039;49.500;10.418;2023-09-12T09:44:07;3.30;;;2.72;;
81629;SDS011;71039;49.500;10.418;2023-09-12T09:46:34;4.10;;;2.65;;
81629;SDS011;71039;49.500;10.418;2023-09-12T09:49:00;3.38;;;2.83;;
81629;SDS011;71039;49.500;10.418;2023-09-12T09:51:26;3.72;;;2.90;;
81629;SDS011;71039;49.500;10.418;2023-09-12T09:53:52;3.40;;;2.22;;
81629;SDS011;71039;49.500;10.418;2023-09-12T09:56:18;2.65;;;2.20;;
81629;SDS011;71039;49.500;10.418;2023-09-12T09:58:47;3.90;;;2.42;;
81629;SDS011;71039;49.500;10.418;2023-09-12T10:01:27;4.32;;;2.40;;
81629;SDS011;71039;49.500;10.418;2023-09-12T10:03:58;3.53;;;2.17;;
81629;SDS011;71039;49.500;10.418;2023-09-12T10:06:24;3.33;;;2.10;;
81629;SDS011;71039;49.500;10.418;2023-09-12T10:08:52;3.63;;;2.65;;
81629;SDS011;71039;49.500;10.418;2023-09-12T10:11:20;4.13;;;1.88;;
81629;SDS011;71039;49.500;10.418;2023-09-12T10:13:53;3.83;;;2.30;;
81629;SDS011;71039;49.500;10.418;2023-09-12T10:16:19;2.95;;;2.47;;
81629;SDS011;71039;49.500;10.418;2023-09-12T10:18:57;3.60;;;2.38;;
81629;SDS011;71039;49.500;10.418;2023-09-12T10:21:28;5.28;;;2.28;;
81629;SDS011;71039;49.500;10.418;2023-09-12T10:23:55;2.20;;;2.00;;
81629;SDS011;71039;49.500;10.418;2023-09-12T10:26:23;4.90;;;2.63;;
81629;SDS011;71039;49.500;10.418;2023-09-12T10:28:49;2.70;;;2.42;;
81629;SDS011;71039;49.500;10.418;2023-09-12T10:31:16;2.50;;;2.10;;
81629;SDS011;71039;49.500;10.418;2023-09-12T10:33:42;3.10;;;1.85;;
81629;SDS011;71039;49.500;10.418;2023-09-12T10:36:08;3.85;;;1.92;;
81629;SDS011;71039;49.500;10.418;2023-09-12T10:38:36;2.30;;;2.10;;
81629;SDS011;71039;49.500;10.418;2023-09-12T10:41:07;2.85;;;1.92;;
81629;SDS011;71039;49.500;10.418;2023-09-12T10:43:36;3.28;;;2.55;;
81629;SDS011;71039;49.500;10.418;2023-09-12T10:46:03;3.30;;;2.03;;
81629;SDS011;71039;49.500;10.418;2023-09-12T10:48:29;3.97;;;2.47;;
81629;SDS011;71039;49.500;10.418;2023-09-12T10:50:57;3.88;;;2.30;;
81629;SDS011;71039;49.500;10.418;2023-09-12T10:53:26;4.15;;;2.05;;
81629;SDS011;71039;49.500;10.418;2023-09-12T10:59:21;2.45;;;1.88;;
81629;SDS011;71039;49.500;10.418;2023-09-12T11:01:28;4.60;;;1.80;;
81629;SDS011;71039;49.500;10.418;2023-09-12T11:03:54;5.88;;;2.13;;
81629;SDS011;71039;49.500;10.418;2023-09-12T11:06:20;2.13;;;1.90;;
81629;SDS011;71039;49.500;10.418;2023-09-12T11:11:47;3.72;;;2.20;;
81629;SDS011;71039;49.500;10.418;2023-09-12T11:14:14;2.10;;;1.88;;
81629;SDS011;71039;49.500;10.418;2023-09-12T11:16:40;2.25;;;1.88;;
81629;SDS011;71039;49.500;10.418;2023-09-12T11:19:13;4.95;;;2.15;;
81629;SDS011;71039;49.500;10.418;2023-09-12T11:21:46;2.85;;;1.92;;
81629;SDS011;71039;49.500;10.418;2023-09-12T11:24:14;2.40;;;1.92;;
81629;SDS011;71039;49.500;10.418;2023-09-12T11:26:56;3.25;;;2.13;;
81629;SDS011;71039;49.500;10.418;2023-09-12T11:29:26;2.33;;;1.85;;
81629;SDS011;71039;49.500;10.418;2023-09-12T11:31:57;2.60;;;2.10;;
81629;SDS011;71039;49.500;10.418;2023-09-12T11:34:24;4.50;;;1.95;;
81629;SDS011;71039;49.500;10.418;2023-09-12T11:36:51;2.33;;;1.90;;
81629;SDS011;71039;49.500;10.418;2023-09-12T11:39:30;2.53;;;1.90;;
81629;SDS011;71039;49.500;10.418;2023-09-12T11:41:59;3.65;;;2.13;;
81629;SDS011;71039;49.500;10.418;2023-09-12T11:44:25;2.95;;;2.10;;
81629;SDS011;71039;49.500;10.418;2023-09-12T11:46:51;2.67;;;2.13;;
81629;SDS011;71039;49.500;10.418;2023-09-12T11:49:18;2.80;;;2.00;;
81629;SDS011;71039;49.500;10.418;2023-09-12T11:54:14;3.80;;;2.33;;
81629;SDS011;71039;49.500;10.418;2023-09-12T11:56:40;3.83;;;2.00;;
81629;SDS011;71039;49.500;10.418;2023-09-12T11:59:06;2.40;;;2.03;;
81629;SDS011;71039;49.500;10.418;2023-09-12T12:01:33;3.25;;;2.03;;
81629;SDS011;71039;49.500;10.418;2023-09-12T12:03:58;5.82;;;2.17;;
81629;SDS011;71039;49.500;10.418;2023-09-12T12:06:24;4.47;;;2.10;;
81629;SDS011;71039;49.500;10.418;2023-09-12T12:08:50;2.55;;;2.08;;
81629;SDS011;71039;49.500;10.418;2023-09-12T12:11:15;2.67;;;2.13;;
81629;SDS011;71039;49.500;10.418;2023-09-12T12:13:41;2.50;;;2.28;;
81629;SDS011;71039;49.500;10.418;2023-09-12T12:16:16;2.83;;;2.17;;
81629;SDS011;71039;49.500;10.418;2023-09-12T12:18:42;1.77;;;1.65;;
81629;SDS011;71039;49.500;10.418;2023-09-12T12:21:07;2.13;;;1.48;;
81629;SDS011;71039;49.500;10.418;2023-09-12T12:23:33;2.17;;;1.92;;
81629;SDS011;71039;49.500;10.418;2023-09-12T12:26:08;4.97;;;2.85;;
81629;SDS011;71039;49.500;10.418;2023-09-12T12:28:37;4.03;;;2.00;;
81629;SDS011;71039;49.500;10.418;2023-09-12T12:31:03;3.00;;;1.90;;
81629;SDS011;71039;49.500;10.418;2023-09-12T12:33:29;4.43;;;2.30;;
81629;SDS011;71039;49.500;10.418;2023-09-12T12:36:02;2.55;;;2.10;;
81629;SDS011;71039;49.500;10.418;2023-09-12T12:38:33;3.50;;;2.20;;
81629;SDS011;71039;49.500;10.418;2023-09-12T12:40:59;4.82;;;2.58;;
81629;SDS011;71039;49.500;10.418;2023-09-12T12:43:25;2.40;;;1.98;;
81629;SDS011;71039;49.500;10.418;2023-09-12T12:45:54;3.42;;;2.03;;
81629;SDS011;71039;49.500;10.418;2023-09-12T12:48:33;2.45;;;2.22;;
81629;SDS011;71039;49.500;10.418;2023-09-12T12:51:05;2.70;;;2.08;;
81629;SDS011;71039;49.500;10.418;2023-09-12T12:53:41;2.85;;;2.22;;
81629;SDS011;71039;49.500;10.418;2023-09-12T12:56:11;2.45;;;2.25;;
81629;SDS011;71039;49.500;10.418;2023-09-12T12:58:51;2.47;;;2.10;;
81629;SDS011;71039;49.500;10.418;2023-09-12T13:01:19;2.70;;;2.50;;
81629;SDS011;71039;49.500;10.418;2023-09-12T13:03:44;2.47;;;2.13;;
81629;SDS011;71039;49.500;10.418;2023-09-12T13:06:10;3.65;;;2.13;;
81629;SDS011;71039;49.500;10.418;2023-09-12T13:08:37;3.58;;;2.42;;
81629;SDS011;71039;49.500;10.418;2023-09-12T13:11:02;2.72;;;2.13;;
81629;SDS011;71039;49.500;10.418;2023-09-12T13:13:28;2.05;;;1.88;;
81629;SDS011;71039;49.500;10.418;2023-09-12T13:15:53;2.70;;;2.40;;
81629;SDS011;71039;49.500;10.418;2023-09-12T13:18:19;4.63;;;2.00;;
81629;SDS011;71039;49.500;10.418;2023-09-12T13:20:44;4.45;;;1.70;;
81629;SDS011;71039;49.500;10.418;2023-09-12T13:23:10;2.17;;;1.98;;
81629;SDS011;71039;49.500;10.418;2023-09-12T13:25:35;2.22;;;2.03;;
81629;SDS011;71039;49.500;10.418;2023-09-12T13:28:01;2.28;;;1.90;;
81629;SDS011;71039;49.500;10.418;2023-09-12T13:30:26;2.40;;;2.20;;
81629;SDS011;71039;49.500;10.418;2023-09-12T13:32:52;3.45;;;1.73;;
81629;SDS011;71039;49.500;10.418;2023-09-12T13:35:17;4.45;;;2.15;;
81629;SDS011;71039;49.500;10.418;2023-09-12T13:37:43;3.55;;;1.83;;
81629;SDS011;71039;49.500;10.418;2023-09-12T13:40:08;3.38;;;1.77;;
81629;SDS011;71039;49.500;10.418;2023-09-12T13:42:34;2.08;;;1.88;;
81629;SDS011;71039;49.500;10.418;2023-09-12T13:45:00;3.35;;;2.10;;
81629;SDS011;71039;49.500;10.418;2023-09-12T13:47:25;4.38;;;2.10;;
81629;SDS011;71039;49.500;10.418;2023-09-12T13:49:51;6.10;;;2.28;;
81629;SDS011;71039;49.500;10.418;2023-09-12T13:52:16;6.53;;;2.20;;
81629;SDS011;71039;49.500;10.418;2023-09-12T13:54:42;3.05;;;2.25;;
81629;SDS011;71039;49.500;10.418;2023-09-12T13:57:07;2.92;;;1.50;;
81629;SDS011;71039;49.500;10.418;2023-09-12T13:59:33;2.22;;;1.85;;
81629;SDS011;71039;49.500;10.418;2023-09-12T14:01:58;2.72;;;2.10;;
81629;SDS011;71039;49.500;10.418;2023-09-12T14:04:24;2.13;;;1.88;;
81629;SDS011;71039;49.500;10.418;2023-09-12T14:06:49;2.22;;;1.75;;
81629;SDS011;71039;49.500;10.418;2023-09-12T14:09:15;2.65;;;2.10;;
81629;SDS011;71039;49.500;10.418;2023-09-12T14:11:40;2.75;;;1.83;;
81629;SDS011;71039;49.500;10.418;2023-09-12T14:14:06;3.60;;;1.67;;
81629;SDS011;71039;49.500;10.418;2023-09-12T14:16:31;4.32;;;2.10;;
81629;SDS011;71039;49.500;10.418;2023-09-12T14:18:57;2.25;;;1.73;;
81629;SDS011;71039;49.500;10.418;2023-09-12T14:21:23;4.63;;;1.90;;
81629;SDS011;71039;49.500;10.418;2023-09-12T14:23:49;2.00;;;1.65;;
81629;SDS011;71039;49.500;10.418;2023-09-12T14:26:14;1.80;;;1.63;;
81629;SDS011;71039;49.500;10.418;2023-09-12T14:28:40;3.53;;;1.63;;
81629;SDS011;71039;49.500;10.418;2023-09-12T14:31:05;2.60;;;1.77;;
81629;SDS011;71039;49.500;10.418;2023-09-12T14:33:31;3.38;;;2.10;;
81629;SDS011;71039;49.500;10.418;2023-09-12T14:35:56;2.10;;;1.83;;
81629;SDS011;71039;49.500;10.418;2023-09-12T14:38:22;2.30;;;1.90;;
81629;SDS011;71039;49.500;10.418;2023-09-12T14:40:48;2.03;;;1.70;;
81629;SDS011;71039;49.500;10.418;2023-09-12T14:43:13;2.83;;;1.73;;